Time;durP1;ratioP1;P1;durP2;ratioP2;P2;SDS_P1;SDS_P2;PMS_P1;PMS_P2;Temp;Humidity;BMP_temperature;BMP_pressure;BME280_temperature;BME280_humidity;BME280_pressure;Samples;Min_cycle;Max_cycle;Signal;HPM_P1;HPM_P2
2023/03/28 00:01:06;;;;;;;4.25;2.05;;;17.40;42.70;;;;;;5154350;27;20256;-73
2023/03/28 00:03:35;;;;;;;3.20;2.30;;;17.50;42.80;;;;;;5154533;27;20198;-80
2023/03/28 00:06:04;;;;;;;3.90;2.13;;;17.50;42.80;;;;;;5154155;27;20266;-80
2023/03/28 00:08:31;;;;;;;2.20;2.00;;;17.40;42.70;;;;;;5154177;27;20213;-79
2023/03/28 00:11:06;;;;;;;3.78;2.33;;;17.40;42.70;;;;;;5154065;27;20211;-79
2023/03/28 00:13:35;;;;;;;3.67;2.22;;;17.40;42.70;;;;;;5153804;27;20187;-79
2023/03/28 00:16:05;;;;;;;2.53;2.13;;;17.40;42.70;;;;;;5153539;27;20215;-72
2023/03/28 00:18:36;;;;;;;4.15;2.20;;;17.40;42.70;;;;;;5153988;27;20264;-79
2023/03/28 00:21:08;;;;;;;7.78;2.75;;;17.40;42.70;;;;;;5154192;27;20211;-79
2023/03/28 00:23:36;;;;;;;4.68;2.50;;;17.40;42.70;;;;;;5153840;27;20675;-80
2023/03/28 00:26:07;;;;;;;3.30;2.20;;;17.30;42.70;;;;;;5154293;27;20222;-77
2023/03/28 00:28:36;;;;;;;3.17;2.10;;;17.40;42.70;;;;;;5154050;27;20272;-79
2023/03/28 00:31:05;;;;;;;5.10;2.28;;;17.40;42.70;;;;;;5154038;27;20211;-79
2023/03/28 00:33:33;;;;;;;3.90;2.20;;;17.40;42.70;;;;;;5153998;27;20187;-79
2023/03/28 00:36:00;;;;;;;3.63;2.33;;;17.40;42.80;;;;;;5153436;27;21031;-80
2023/03/28 00:38:27;;;;;;;3.00;2.13;;;17.40;42.80;;;;;;5154612;27;20223;-77
2023/03/28 00:40:56;;;;;;;2.50;1.70;;;17.40;42.80;;;;;;5158175;27;20587;-80
2023/03/28 00:43:40;;;;;;;3.78;2.20;;;17.30;42.70;;;;;;5158085;27;20180;-79
2023/03/28 00:46:15;;;;;;;7.57;2.63;;;17.40;42.80;;;;;;5155541;27;20817;-80
2023/03/28 00:48:48;;;;;;;3.30;2.30;;;17.40;42.80;;;;;;5151362;27;20294;-79
2023/03/28 00:51:16;;;;;;;3.40;2.22;;;17.40;42.80;;;;;;5157595;27;20211;-79
2023/03/28 00:53:44;;;;;;;3.28;2.20;;;17.40;42.90;;;;;;5157569;27;20191;-73
2023/03/28 00:56:17;;;;;;;3.47;2.30;;;17.30;42.80;;;;;;5157495;27;20573;-79
2023/03/28 00:58:47;;;;;;;4.00;2.25;;;17.40;42.90;;;;;;5157431;27;20214;-77
2023/03/28 01:01:17;;;;;;;3.80;2.50;;;17.30;42.80;;;;;;5157767;27;20268;-79
2023/03/28 01:03:47;;;;;;;4.57;2.42;;;17.30;42.80;;;;;;5157805;27;20183;-79
2023/03/28 01:06:15;;;;;;;3.30;2.28;;;17.30;42.80;;;;;;5157198;27;20231;-79
2023/03/28 01:08:45;;;;;;;4.22;2.05;;;17.30;42.80;;;;;;5157644;27;20192;-76
2023/03/28 01:11:13;;;;;;;2.78;2.00;;;17.30;42.80;;;;;;5157556;27;20302;-79
2023/03/28 01:13:47;;;;;;;3.83;2.25;;;17.30;42.90;;;;;;5157217;27;20188;-78
2023/03/28 01:16:15;;;;;;;3.78;2.25;;;17.40;42.90;;;;;;5157104;27;20207;-79
2023/03/28 01:18:45;;;;;;;3.38;2.30;;;17.30;42.90;;;;;;5157141;27;20729;-79
2023/03/28 01:21:53;;;;;;;3.65;2.45;;;17.30;42.90;;;;;;5157378;27;20275;-79
2023/03/28 01:24:49;;;;;;;3.95;2.35;;;17.30;42.90;;;;;;5157569;27;20234;-79
2023/03/28 01:27:22;;;;;;;4.10;2.03;;;17.30;42.90;;;;;;5115095;27;20594;-80
2023/03/28 01:30:25;;;;;;;3.70;2.28;;;17.30;42.90;;;;;;5157045;27;20272;-78
2023/03/28 01:33:23;;;;;;;3.70;2.00;;;17.30;43.00;;;;;;5072587;28;20238;-77
2023/03/28 01:36:36;;;;;;;3.72;2.20;;;17.30;43.00;;;;;;5072606;28;20222;-79
2023/03/28 01:39:11;;;;;;;4.03;2.17;;;17.30;43.10;;;;;;5072494;28;20230;-78
2023/03/28 01:41:47;;;;;;;3.03;1.88;;;17.30;43.10;;;;;;5072479;28;20259;-79
2023/03/28 01:44:23;;;;;;;3.42;2.08;;;17.30;43.10;;;;;;5072460;28;20199;-79
2023/03/28 01:46:57;;;;;;;2.55;1.83;;;17.30;43.10;;;;;;5072296;28;20191;-78
2023/03/28 01:49:33;;;;;;;3.13;2.15;;;17.30;43.10;;;;;;5072212;28;20199;-80
2023/03/28 01:52:06;;;;;;;3.58;2.03;;;17.30;43.20;;;;;;5071790;28;20282;-79
2023/03/28 01:54:44;;;;;;;2.08;1.80;;;17.30;43.20;;;;;;5072270;28;20268;-79
2023/03/28 01:57:16;;;;;;;3.13;2.15;;;17.30;43.20;;;;;;5072129;28;20202;-78
2023/03/28 01:59:47;;;;;;;3.03;1.95;;;17.30;43.20;;;;;;5072092;28;20214;-79
2023/03/28 02:02:21;;;;;;;3.42;1.95;;;17.30;43.30;;;;;;5072197;28;20191;-79
2023/03/28 02:04:50;;;;;;;3.25;2.10;;;17.30;43.30;;;;;;5071839;28;20238;-78
2023/03/28 02:07:20;;;;;;;2.72;2.22;;;17.30;44.00;;;;;;5072026;28;20617;-76
2023/03/28 02:09:49;;;;;;;3.30;2.08;;;17.30;43.30;;;;;;5100607;27;20268;-79
2023/03/28 02:12:23;;;;;;;4.05;1.95;;;17.30;43.40;;;;;;5156095;27;20691;-76
2023/03/28 02:14:53;;;;;;;3.92;2.20;;;17.30;43.40;;;;;;5156335;27;20223;-78
2023/03/28 02:17:22;;;;;;;5.22;1.95;;;17.30;43.40;;;;;;5155825;27;20180;-78
2023/03/28 02:19:57;;;;;;;2.45;1.65;;;17.20;43.40;;;;;;5155936;27;20621;-79
2023/03/28 02:22:30;;;;;;;4.63;2.10;;;17.20;43.30;;;;;;5155859;27;20189;-79
2023/03/28 02:24:59;;;;;;;3.17;1.88;;;17.30;43.50;;;;;;5156502;27;20212;-79
2023/03/28 02:27:27;;;;;;;2.80;1.67;;;17.20;43.40;;;;;;5155996;27;20188;-78
2023/03/28 02:29:54;;;;;;;2.95;1.83;;;17.20;43.40;;;;;;5155965;27;20234;-79
2023/03/28 02:32:22;;;;;;;2.50;2.08;;;17.20;43.50;;;;;;5155560;27;20183;-79
2023/03/28 02:34:52;;;;;;;3.28;1.88;;;17.20;43.50;;;;;;5155960;27;20219;-75
2023/03/28 02:37:31;;;;;;;3.10;1.83;;;17.20;43.60;;;;;;5155481;27;20663;-78
2023/03/28 02:40:17;;;;;;;4.15;1.88;;;17.30;43.70;;;;;;5156066;27;20721;-79
2023/03/28 02:43:03;;;;;;;4.95;1.95;;;17.30;43.70;;;;;;5155771;27;20195;-79
2023/03/28 02:45:57;;;;;;;3.63;1.90;;;17.20;43.70;;;;;;5155962;27;20219;-78
2023/03/28 02:48:36;;;;;;;2.50;1.80;;;17.20;43.70;;;;;;5155814;27;20207;-79
2023/03/28 02:51:13;;;;;;;2.65;1.90;;;17.20;43.80;;;;;;5155887;27;20217;-79
2023/03/28 02:53:51;;;;;;;2.53;1.73;;;17.20;43.70;;;;;;5155566;27;20183;-78
2023/03/28 02:56:25;;;;;;;2.92;1.67;;;17.20;43.70;;;;;;5155493;27;20218;-79
2023/03/28 02:58:55;;;;;;;5.63;1.88;;;17.20;43.80;;;;;;5154981;27;20209;-79
2023/03/28 03:01:28;;;;;;;3.17;1.90;;;17.20;43.80;;;;;;5155351;27;20302;-78
2023/03/28 03:03:55;;;;;;;3.80;1.98;;;17.20;43.80;;;;;;5155360;27;20212;-79
2023/03/28 03:06:23;;;;;;;3.78;1.77;;;17.20;43.80;;;;;;5154974;27;20231;-79
2023/03/28 03:08:50;;;;;;;3.25;1.60;;;17.20;43.80;;;;;;5155301;27;20203;-78
2023/03/28 03:11:18;;;;;;;3.25;2.20;;;17.20;43.80;;;;;;5155498;27;20227;-79
2023/03/28 03:13:45;;;;;;;2.75;1.75;;;17.20;43.80;;;;;;5155215;27;20207;-75
2023/03/28 03:16:12;;;;;;;3.03;1.83;;;17.20;43.80;;;;;;5154675;27;20212;-79
2023/03/28 03:18:39;;;;;;;2.92;1.67;;;17.20;43.80;;;;;;5154568;27;20696;-79
2023/03/28 03:21:07;;;;;;;3.78;1.77;;;17.20;43.80;;;;;;5155337;27;20717;-78
2023/03/28 03:23:35;;;;;;;1.80;1.60;;;17.20;43.80;;;;;;5155383;27;20187;-79
2023/03/28 03:26:02;;;;;;;3.58;1.90;;;17.20;43.80;;;;;;5154990;27;20215;-78
2023/03/28 03:28:31;;;;;;;3.00;1.80;;;17.20;43.80;;;;;;5154485;27;20196;-78
2023/03/28 03:30:58;;;;;;;2.85;2.00;;;17.20;43.90;;;;;;5154830;27;20319;-79
2023/03/28 03:33:25;;;;;;;4.75;2.10;;;17.20;43.80;;;;;;5154722;27;20188;-79
2023/03/28 03:35:52;;;;;;;5.88;1.83;;;17.20;43.90;;;;;;5154647;27;20711;-79
2023/03/28 03:38:19;;;;;;;2.22;1.60;;;17.20;43.90;;;;;;5154658;27;20200;-79
2023/03/28 03:40:46;;;;;;;1.98;1.63;;;17.20;43.80;;;;;;5154723;27;20230;-78
2023/03/28 03:43:13;;;;;;;2.30;1.70;;;17.20;43.90;;;;;;5154297;27;20187;-77
2023/03/28 03:45:44;;;;;;;3.47;1.90;;;17.20;43.80;;;;;;5154151;27;20738;-79
2023/03/28 03:48:11;;;;;;;2.72;1.60;;;17.20;43.90;;;;;;5154386;27;20187;-77
2023/03/28 03:50:39;;;;;;;2.25;1.58;;;17.20;43.90;;;;;;5154553;27;20595;-78
2023/03/28 03:53:06;;;;;;;2.15;1.50;;;17.10;43.80;;;;;;5154182;27;20198;-79
2023/03/28 03:55:33;;;;;;;2.47;1.80;;;17.20;43.90;;;;;;5153986;27;20215;-79
2023/03/28 03:58:01;;;;;;;3.25;1.85;;;17.20;43.90;;;;;;5153825;27;20256;-78
2023/03/28 04:00:29;;;;;;;3.58;1.85;;;17.10;43.80;;;;;;5154370;27;20262;-79
2023/03/28 04:02:57;;;;;;;4.47;1.98;;;17.20;43.90;;;;;;5154522;27;20569;-79
2023/03/28 04:05:25;;;;;;;2.55;1.35;;;17.10;43.80;;;;;;5153899;27;20227;-79
2023/03/28 04:07:52;;;;;;;2.17;1.80;;;17.20;43.90;;;;;;5154439;27;20202;-78
2023/03/28 04:10:20;;;;;;;3.80;1.77;;;17.20;43.90;;;;;;5153969;27;20223;-76
2023/03/28 04:12:47;;;;;;;2.40;1.70;;;17.10;43.80;;;;;;5153900;27;20192;-80
2023/03/28 04:15:14;;;;;;;2.92;1.85;;;17.20;43.90;;;;;;5154012;27;20234;-78
2023/03/28 04:17:43;;;;;;;4.57;1.50;;;17.10;43.80;;;;;;5154082;27;20184;-78
2023/03/28 04:20:12;;;;;;;2.53;1.55;;;17.10;43.80;;;;;;5154036;27;20235;-75
2023/03/28 04:22:39;;;;;;;2.88;1.70;;;17.10;43.80;;;;;;5154167;27;20188;-79
2023/03/28 04:25:07;;;;;;;3.72;1.60;;;17.10;43.80;;;;;;5154161;27;20212;-79
2023/03/28 04:27:34;;;;;;;2.65;1.60;;;17.10;43.80;;;;;;5154030;27;20195;-79
2023/03/28 04:30:01;;;;;;;2.10;1.50;;;17.10;43.80;;;;;;5154119;27;20250;-78
2023/03/28 04:32:29;;;;;;;4.47;1.80;;;17.10;43.80;;;;;;5154031;27;20267;-77
2023/03/28 04:34:56;;;;;;;2.08;1.50;;;17.10;43.80;;;;;;5154439;27;20211;-78
2023/03/28 04:37:24;;;;;;;2.75;1.65;;;17.10;44.40;;;;;;5154139;27;20184;-79
2023/03/28 04:39:52;;;;;;;3.50;1.50;;;17.10;43.80;;;;;;5153838;27;20230;-79
2023/03/28 04:42:20;;;;;;;2.55;1.60;;;17.20;43.90;;;;;;5153841;27;20663;-78
2023/03/28 04:44:47;;;;;;;1.85;1.50;;;17.10;43.80;;;;;;5153826;27;20557;-79
2023/03/28 04:47:14;;;;;;;2.53;1.50;;;17.10;43.80;;;;;;5153533;27;20188;-78
2023/03/28 04:49:41;;;;;;;2.25;1.45;;;17.20;43.80;;;;;;5153440;27;20184;-78
2023/03/28 04:52:08;;;;;;;1.83;1.60;;;17.20;43.90;;;;;;5153505;27;20710;-80
2023/03/28 04:54:37;;;;;;;4.68;1.65;;;17.20;43.90;;;;;;5153532;27;20203;-78
2023/03/28 04:57:04;;;;;;;3.00;1.30;;;17.20;43.90;;;;;;5153976;27;20206;-72
2023/03/28 04:59:31;;;;;;;4.05;1.60;;;17.20;43.80;;;;;;5153552;27;20227;-79
2023/03/28 05:01:58;;;;;;;2.85;1.73;;;17.20;43.80;;;;;;5153222;27;20188;-78
2023/03/28 05:04:26;;;;;;;2.33;1.40;;;17.30;43.90;;;;;;5153330;27;20188;-79
2023/03/28 05:06:53;;;;;;;2.42;1.77;;;17.30;43.90;;;;;;5153554;27;20207;-80
2023/03/28 05:09:21;;;;;;;3.58;1.40;;;17.30;44.00;;;;;;5153276;27;20244;-74
2023/03/28 05:11:50;;;;;;;2.55;1.60;;;17.30;43.90;;;;;;5153993;27;20216;-78
2023/03/28 05:14:17;;;;;;;2.38;1.50;;;17.30;43.90;;;;;;5153744;27;20196;-78
2023/03/28 05:16:44;;;;;;;2.03;1.30;;;17.30;43.90;;;;;;5153994;27;20223;-79
2023/03/28 05:19:11;;;;;;;2.45;1.40;;;17.30;43.90;;;;;;5153024;27;20208;-78
2023/03/28 05:21:39;;;;;;;2.20;1.38;;;17.40;44.00;;;;;;5153838;27;20261;-79
2023/03/28 05:24:08;;;;;;;2.65;1.20;;;17.40;43.90;;;;;;5153527;27;20294;-78
2023/03/28 05:26:35;;;;;;;2.15;1.35;;;17.40;44.00;;;;;;5156160;27;20235;-79
2023/03/28 05:29:04;;;;;;;2.33;1.50;;;17.40;44.60;;;;;;5156895;27;20187;-78
2023/03/28 05:31:31;;;;;;;3.53;1.55;;;17.50;44.00;;;;;;5156692;27;20227;-77
2023/03/28 05:33:58;;;;;;;1.63;1.30;;;17.50;43.90;;;;;;5157060;27;20184;-79
2023/03/28 05:36:26;;;;;;;2.38;1.30;;;17.50;43.90;;;;;;5157090;27;20223;-79
2023/03/28 05:38:53;;;;;;;1.50;1.35;;;17.50;43.90;;;;;;5157112;27;20211;-78
2023/03/28 05:41:20;;;;;;;2.40;1.50;;;17.50;43.80;;;;;;5157366;27;20722;-78
2023/03/28 05:43:47;;;;;;;2.67;1.30;;;17.60;43.90;;;;;;5156860;27;20184;-79
2023/03/28 05:46:15;;;;;;;3.90;1.48;;;17.60;43.90;;;;;;5156548;27;20211;-78
2023/03/28 05:48:42;;;;;;;2.45;1.42;;;17.60;43.90;;;;;;5156371;27;20184;-72
2023/03/28 05:51:09;;;;;;;1.95;1.30;;;17.60;43.90;;;;;;5157205;27;20211;-79
2023/03/28 05:53:36;;;;;;;2.40;1.50;;;17.60;43.90;;;;;;5157031;27;20240;-79
2023/03/28 05:56:04;;;;;;;2.67;1.30;;;17.60;43.80;;;;;;5156517;27;20214;-79
2023/03/28 05:58:31;;;;;;;2.25;1.33;;;17.60;43.80;;;;;;5156180;27;20191;-76
2023/03/28 06:00:59;;;;;;;2.35;1.42;;;17.60;43.70;;;;;;5156919;27;20223;-78
2023/03/28 06:03:30;;;;;;;2.20;1.33;;;17.70;43.80;;;;;;5156874;27;20191;-78
2023/03/28 06:05:57;;;;;;;1.92;1.30;;;17.70;43.80;;;;;;5156046;27;20228;-79
2023/03/28 06:08:25;;;;;;;3.05;1.27;;;17.70;43.80;;;;;;5156172;27;20199;-79
2023/03/28 06:10:52;;;;;;;9.13;1.40;;;17.70;43.80;;;;;;5156201;27;20700;-77
2023/03/28 06:13:20;;;;;;;1.30;1.20;;;17.70;43.70;;;;;;5157483;27;20184;-80
2023/03/28 06:15:47;;;;;;;1.50;1.33;;;17.80;43.80;;;;;;5156375;27;20215;-80
2023/03/28 06:18:14;;;;;;;0.95;0.93;;;17.80;43.70;;;;;;5156339;27;20557;-73
2023/03/28 06:20:43;;;;;;;2.63;1.10;;;17.80;43.80;;;;;;5156219;27;20234;-73
2023/03/28 06:23:10;;;;;;;2.33;1.30;;;17.70;43.70;;;;;;5156284;27;20196;-79
2023/03/28 06:25:37;;;;;;;1.38;1.20;;;17.70;43.60;;;;;;5156153;27;20294;-79
2023/03/28 06:28:05;;;;;;;1.65;1.17;;;17.80;43.70;;;;;;5156096;27;20190;-79
2023/03/28 06:30:32;;;;;;;2.05;1.20;;;17.80;43.60;;;;;;5156075;27;20220;-72
2023/03/28 06:32:59;;;;;;;2.30;1.10;;;17.80;43.60;;;;;;5156159;27;20307;-79
2023/03/28 06:35:26;;;;;;;1.73;1.05;;;17.80;43.50;;;;;;5156204;27;20226;-79
2023/03/28 06:37:55;;;;;;;2.22;1.17;;;17.90;43.60;;;;;;5155102;27;20663;-79
2023/03/28 06:40:22;;;;;;;2.25;1.40;;;17.80;43.50;;;;;;5155446;27;20809;-78
2023/03/28 06:42:49;;;;;;;3.22;1.52;;;17.90;43.50;;;;;;5141533;27;20192;-78
2023/03/28 06:45:16;;;;;;;1.40;1.10;;;17.90;43.40;;;;;;5134735;27;20228;-78
2023/03/28 06:47:44;;;;;;;2.10;1.30;;;17.90;43.40;;;;;;5134772;27;20185;-77
2023/03/28 06:50:11;;;;;;;2.38;1.15;;;17.90;43.30;;;;;;5153692;27;20343;-77
2023/03/28 06:52:39;;;;;;;2.08;1.33;;;17.90;43.30;;;;;;5155040;27;20180;-78
2023/03/28 06:55:08;;;;;;;1.50;1.17;;;17.90;43.30;;;;;;5150746;27;20215;-78
2023/03/28 06:57:35;;;;;;;6.00;1.40;;;17.90;43.20;;;;;;5148072;27;20200;-78
2023/03/28 07:00:03;;;;;;;2.97;1.40;;;17.90;43.10;;;;;;5154716;27;20235;-78
2023/03/28 07:02:30;;;;;;;2.50;1.35;;;17.90;43.10;;;;;;5154132;27;20291;-78
2023/03/28 07:04:57;;;;;;;2.90;1.50;;;17.90;43.10;;;;;;5153937;27;20275;-78
2023/03/28 07:07:24;;;;;;;1.88;1.27;;;17.90;43.10;;;;;;5134359;27;20196;-78
2023/03/28 07:09:53;;;;;;;3.53;1.40;;;17.90;43.10;;;;;;5134345;27;20196;-78
2023/03/28 07:12:22;;;;;;;2.08;1.13;;;17.90;43.10;;;;;;5154664;27;20675;-78
2023/03/28 07:14:49;;;;;;;3.13;1.30;;;17.90;43.00;;;;;;5134066;27;20252;-78
2023/03/28 07:17:16;;;;;;;2.08;1.15;;;18.00;43.00;;;;;;5133688;27;20185;-78
2023/03/28 07:19:44;;;;;;;4.25;1.52;;;18.00;42.90;;;;;;5133886;27;20212;-77
2023/03/28 07:22:12;;;;;;;2.45;1.45;;;17.90;42.90;;;;;;5134072;27;20189;-78
2023/03/28 07:24:39;;;;;;;3.53;1.48;;;18.00;42.90;;;;;;5133689;27;20188;-78
2023/03/28 07:27:08;;;;;;;2.55;1.35;;;18.00;42.90;;;;;;5133929;27;20220;-78
2023/03/28 07:29:37;;;;;;;3.80;1.30;;;18.00;42.90;;;;;;5133761;27;20184;-78
2023/03/28 07:32:05;;;;;;;2.45;1.58;;;18.00;42.90;;;;;;5133645;27;20220;-77
2023/03/28 07:34:32;;;;;;;4.10;1.27;;;18.00;42.80;;;;;;5133865;27;20189;-77
2023/03/28 07:37:00;;;;;;;2.22;1.27;;;18.00;42.80;;;;;;5115583;27;20212;-80
2023/03/28 07:39:27;;;;;;;3.53;1.30;;;18.00;42.70;;;;;;5133463;27;20215;-80
2023/03/28 07:41:54;;;;;;;1.80;1.38;;;18.00;42.70;;;;;;5133486;27;20574;-80
2023/03/28 07:44:21;;;;;;;2.38;1.50;;;18.10;42.70;;;;;;5133424;27;20218;-79
2023/03/28 07:46:52;;;;;;;1.48;1.23;;;18.10;43.30;;;;;;5132630;27;20273;-76
2023/03/28 07:49:20;;;;;;;2.90;1.05;;;18.10;42.70;;;;;;5134213;27;20603;-78
2023/03/28 07:51:48;;;;;;;6.03;1.20;;;18.10;42.70;;;;;;5153822;27;20346;-79
2023/03/28 07:54:17;;;;;;;1.70;1.13;;;18.20;42.70;;;;;;5139422;27;20196;-79
2023/03/28 07:56:45;;;;;;;4.25;1.60;;;18.10;42.60;;;;;;5133127;27;20252;-77
2023/03/28 07:59:13;;;;;;;3.28;1.20;;;18.20;42.70;;;;;;5133453;27;20192;-80
2023/03/28 08:01:41;;;;;;;2.08;1.17;;;18.20;42.50;;;;;;5144132;27;20705;-79
2023/03/28 08:04:10;;;;;;;1.80;1.13;;;18.20;42.50;;;;;;5141263;27;20261;-78
2023/03/28 08:06:39;;;;;;;2.92;1.05;;;18.20;42.60;;;;;;5134154;27;20216;-78
2023/03/28 08:09:09;;;;;;;3.22;1.27;;;18.30;42.50;;;;;;5141169;27;20200;-83
2023/03/28 08:11:37;;;;;;;2.67;1.13;;;18.20;42.40;;;;;;5141672;27;20721;-72
2023/03/28 08:14:08;;;;;;;7.10;1.52;;;18.30;42.40;;;;;;5137280;27;20763;-72
2023/03/28 08:16:35;;;;;;;1.40;1.00;;;18.30;42.50;;;;;;5118477;27;20222;-75
2023/03/28 08:19:03;;;;;;;4.72;1.25;;;18.40;42.50;;;;;;5130092;27;20192;-67
2023/03/28 08:21:34;;;;;;;3.80;1.30;;;18.40;42.50;;;;;;5142131;27;20223;-67
2023/03/28 08:24:01;;;;;;;2.08;1.30;;;18.40;42.50;;;;;;5119607;27;20279;-67
2023/03/28 08:26:29;;;;;;;4.07;1.10;;;18.50;42.40;;;;;;5151131;27;20223;-68
2023/03/28 08:28:57;;;;;;;2.47;1.27;;;18.50;42.20;;;;;;5149454;27;20200;-68
2023/03/28 08:31:26;;;;;;;1.90;1.10;;;18.50;42.20;;;;;;5144720;27;20238;-69
2023/03/28 08:33:55;;;;;;;3.30;1.20;;;18.50;42.20;;;;;;5150623;27;20219;-70
2023/03/28 08:36:24;;;;;;;2.15;1.33;;;18.50;42.10;;;;;;5147388;27;20968;-68
2023/03/28 08:38:59;;;;;;;2.67;1.30;;;18.50;42.10;;;;;;5150435;27;20754;-68
2023/03/28 08:41:37;;;;;;;1.95;1.13;;;18.50;42.10;;;;;;5150286;27;20732;-69
2023/03/28 08:44:44;;;;;;;1.65;1.20;;;18.60;41.80;;;;;;5150654;27;20179;-69
2023/03/28 08:47:17;;;;;;;2.10;1.25;;;18.60;42.00;;;;;;5151005;27;20211;-69
2023/03/28 08:49:47;;;;;;;1.35;1.00;;;18.60;41.80;;;;;;5151428;27;20609;-69
2023/03/28 08:52:18;;;;;;;1.17;1.02;;;18.60;41.60;;;;;;5151389;27;20283;-69
2023/03/28 08:54:50;;;;;;;1.63;0.88;;;18.60;41.80;;;;;;5150775;27;20192;-69
2023/03/28 08:57:21;;;;;;;1.92;1.00;;;18.70;41.90;;;;;;5145552;27;20216;-70
2023/03/28 08:59:55;;;;;;;4.10;1.20;;;18.70;41.40;;;;;;5144638;27;20615;-69
2023/03/28 09:02:26;;;;;;;2.67;1.27;;;18.70;41.60;;;;;;5145037;27;20267;-69
2023/03/28 09:04:54;;;;;;;2.97;1.10;;;18.70;41.70;;;;;;5143914;27;20228;-69
2023/03/28 09:07:33;;;;;;;1.40;1.10;;;18.70;41.60;;;;;;5137737;27;20223;-67
2023/03/28 09:10:15;;;;;;;2.65;1.30;;;18.80;41.50;;;;;;5146516;27;20207;-67
2023/03/28 09:12:51;;;;;;;5.57;1.30;;;18.70;41.50;;;;;;5150717;27;20212;-67
2023/03/28 09:15:50;;;;;;;3.13;1.10;;;18.80;41.40;;;;;;5148748;27;20191;-68
2023/03/28 09:18:37;;;;;;;2.45;0.95;;;18.80;41.50;;;;;;5148984;27;20195;-69
2023/03/28 09:21:13;;;;;;;1.50;1.15;;;18.80;41.30;;;;;;5145745;27;20308;-68
2023/03/28 09:24:03;;;;;;;2.42;1.20;;;18.80;41.40;;;;;;5154459;27;20195;-68
2023/03/28 09:26:37;;;;;;;2.47;1.17;;;18.90;41.40;;;;;;5141514;27;20355;-68
2023/03/28 09:29:10;;;;;;;2.15;1.20;;;18.90;41.40;;;;;;5145621;27;20662;-68
2023/03/28 09:31:41;;;;;;;5.22;1.17;;;18.90;41.30;;;;;;5136965;27;20633;-69
2023/03/28 09:34:18;;;;;;;1.63;1.20;;;18.90;41.10;;;;;;5142516;27;20206;-70
2023/03/28 09:36:46;;;;;;;2.13;1.25;;;18.90;41.30;;;;;;5133148;27;20364;-69
2023/03/28 09:39:21;;;;;;;3.03;1.48;;;18.90;40.80;;;;;;5138517;27;20243;-69
2023/03/28 09:41:57;;;;;;;4.78;1.30;;;19.00;40.80;;;;;;5153172;27;20321;-69
2023/03/28 09:44:31;;;;;;;3.88;1.30;;;19.00;40.80;;;;;;5150942;27;20592;-69
2023/03/28 09:47:00;;;;;;;4.30;1.00;;;19.00;40.60;;;;;;5123553;27;20212;-69
2023/03/28 09:49:28;;;;;;;1.98;1.15;;;19.00;40.60;;;;;;5149696;27;20256;-70
2023/03/28 09:51:57;;;;;;;4.30;1.33;;;19.00;40.60;;;;;;5148675;27;20280;-70
2023/03/28 09:54:29;;;;;;;3.70;1.27;;;19.00;40.60;;;;;;5126298;27;20204;-70
2023/03/28 09:57:02;;;;;;;14.52;2.78;;;19.00;40.60;;;;;;5148554;27;20284;-70
2023/03/28 09:59:31;;;;;;;5.47;1.30;;;19.10;40.60;;;;;;5137489;27;20697;-68
2023/03/28 10:02:01;;;;;;;5.22;1.83;;;19.10;40.60;;;;;;5134331;27;20272;-70
2023/03/28 10:04:35;;;;;;;4.32;1.50;;;19.10;40.60;;;;;;5138226;27;20223;-68
2023/03/28 10:07:32;;;;;;;6.53;1.73;;;19.10;40.40;;;;;;5142807;27;20215;-68
2023/03/28 10:10:10;;;;;;;3.17;1.50;;;19.10;40.10;;;;;;5132784;27;20204;-68
2023/03/28 10:12:42;;;;;;;6.07;1.73;;;19.10;40.60;;;;;;5144752;27;20208;-67
2023/03/28 10:15:31;;;;;;;4.32;1.90;;;19.10;40.60;;;;;;5139254;27;20223;-68
2023/03/28 10:18:01;;;;;;;4.63;1.60;;;19.10;40.50;;;;;;5142822;27;20218;-68
2023/03/28 10:20:34;;;;;;;2.55;1.30;;;19.10;40.50;;;;;;5144869;27;20200;-69
2023/03/28 10:23:03;;;;;;;5.43;1.45;;;19.10;40.30;;;;;;5139248;27;20637;-70
2023/03/28 10:25:37;;;;;;;5.65;1.30;;;19.10;40.40;;;;;;5143735;27;20225;-69
2023/03/28 10:28:13;;;;;;;4.82;1.55;;;19.10;40.30;;;;;;5141466;27;20215;-70
2023/03/28 10:30:41;;;;;;;4.88;1.85;;;19.10;40.30;;;;;;5143824;27;20275;-69
2023/03/28 10:33:20;;;;;;;3.05;1.42;;;19.10;40.20;;;;;;5124374;27;20219;-70
2023/03/28 10:35:53;;;;;;;2.15;1.23;;;19.10;40.10;;;;;;5140676;27;20189;-69
2023/03/28 10:38:22;;;;;;;2.20;1.25;;;19.10;40.00;;;;;;5141803;27;20216;-69
2023/03/28 10:40:53;;;;;;;2.83;1.20;;;19.10;40.00;;;;;;5142080;27;20236;-71
2023/03/28 10:43:22;;;;;;;2.28;1.20;;;19.10;39.90;;;;;;5140814;27;20235;-69
2023/03/28 10:45:50;;;;;;;2.50;1.35;;;19.10;39.90;;;;;;5143444;27;20192;-69
2023/03/28 10:48:20;;;;;;;2.42;1.30;;;19.10;39.80;;;;;;5139120;27;20215;-70
2023/03/28 10:50:50;;;;;;;5.82;1.30;;;19.10;39.80;;;;;;5140370;27;20312;-69
2023/03/28 10:53:32;;;;;;;2.15;1.17;;;19.20;39.90;;;;;;5110823;27;20869;-70
2023/03/28 10:56:09;;;;;;;3.60;1.23;;;19.10;39.70;;;;;;5128469;27;20192;-70
2023/03/28 10:58:42;;;;;;;2.78;1.45;;;19.10;39.70;;;;;;5133427;27;20227;-68
2023/03/28 11:01:18;;;;;;;3.58;1.40;;;19.20;39.80;;;;;;5133673;27;20220;-69
2023/03/28 11:04:00;;;;;;;3.20;1.02;;;19.20;39.80;;;;;;5142505;27;20790;-70
2023/03/28 11:06:38;;;;;;;2.60;1.27;;;19.20;39.80;;;;;;5136535;27;20300;-71
2023/03/28 11:09:16;;;;;;;5.65;1.45;;;19.20;39.80;;;;;;5132869;27;20721;-70
2023/03/28 11:11:56;;;;;;;2.53;1.10;;;19.20;39.50;;;;;;5136283;27;20184;-71
2023/03/28 11:14:41;;;;;;;3.03;1.30;;;19.20;39.30;;;;;;5137225;27;20287;-82
2023/03/28 11:17:14;;;;;;;2.38;1.30;;;19.30;39.20;;;;;;5131986;27;20220;-80
2023/03/28 11:20:16;;;;;;;1.73;1.10;;;19.20;39.30;;;;;;5134447;27;20662;-79
2023/03/28 11:22:54;;;;;;;2.22;1.30;;;19.30;39.50;;;;;;5145190;27;20215;-79
2023/03/28 11:25:29;;;;;;;2.65;1.17;;;19.30;39.50;;;;;;5139333;27;20199;-78
2023/03/28 11:28:07;;;;;;;1.20;1.10;;;19.30;39.50;;;;;;5138628;27;20229;-79
2023/03/28 11:30:38;;;;;;;2.67;1.40;;;19.30;39.50;;;;;;5129641;27;20199;-78
2023/03/28 11:33:12;;;;;;;3.15;1.25;;;19.30;39.30;;;;;;5116643;27;20272;-79
2023/03/28 11:35:44;;;;;;;1.30;1.15;;;19.30;39.40;;;;;;5135856;27;20302;-81
2023/03/28 11:38:16;;;;;;;2.92;1.27;;;19.30;39.30;;;;;;5130114;27;20220;-82
2023/03/28 11:40:52;;;;;;;2.08;1.20;;;19.40;39.40;;;;;;5129843;27;20243;-80
2023/03/28 11:43:28;;;;;;;1.95;1.30;;;19.40;39.30;;;;;;5140549;27;20223;-80
2023/03/28 11:46:04;;;;;;;2.47;1.23;;;19.40;39.30;;;;;;5149796;27;20192;-80
2023/03/28 11:48:39;;;;;;;1.30;1.00;;;19.40;39.30;;;;;;5127574;27;20708;-80
2023/03/28 11:51:12;;;;;;;2.42;1.10;;;19.40;39.20;;;;;;5129988;27;20241;-78
2023/03/28 11:53:44;;;;;;;2.08;1.20;;;19.40;39.10;;;;;;5129054;27;20251;-81
2023/03/28 11:56:23;;;;;;;2.17;1.25;;;19.40;39.10;;;;;;5141145;27;20208;-81
2023/03/28 11:58:56;;;;;;;7.07;1.30;;;19.50;39.10;;;;;;5136403;27;20234;-77
2023/03/28 12:01:30;;;;;;;5.93;1.20;;;19.40;38.60;;;;;;5135077;27;20231;-77
2023/03/28 12:04:04;;;;;;;4.68;1.38;;;19.50;38.50;;;;;;5135782;27;20326;-77
2023/03/28 12:06:37;;;;;;;1.40;1.08;;;19.60;39.00;;;;;;5138325;27;20231;-76
2023/03/28 12:09:15;;;;;;;4.13;1.38;;;19.60;38.50;;;;;;5139800;27;20243;-76
2023/03/28 12:11:53;;;;;;;6.38;1.40;;;19.60;38.30;;;;;;5131327;27;20211;-74
2023/03/28 12:14:35;;;;;;;1.10;1.00;;;19.60;38.70;;;;;;5141469;27;20231;-73
2023/03/28 12:17:15;;;;;;;4.95;1.45;;;19.50;38.60;;;;;;5138362;27;20200;-74
2023/03/28 12:19:43;;;;;;;2.72;1.10;;;19.50;38.60;;;;;;5125071;27;20222;-72
2023/03/28 12:22:20;;;;;;;2.70;1.20;;;19.50;38.20;;;;;;5142447;27;20218;-72
2023/03/28 12:24:53;;;;;;;6.55;1.30;;;19.50;38.50;;;;;;5132680;27;20256;-74
2023/03/28 12:27:26;;;;;;;3.55;1.25;;;19.60;38.60;;;;;;5139477;27;20297;-75
2023/03/28 12:29:59;;;;;;;7.25;1.40;;;19.60;38.50;;;;;;5130940;27;20249;-74
2023/03/28 12:32:42;;;;;;;1.25;1.00;;;19.60;38.50;;;;;;5135145;27;20192;-74
2023/03/28 12:35:20;;;;;;;2.00;1.10;;;19.60;38.70;;;;;;5135379;27;20213;-74
2023/03/28 12:38:01;;;;;;;1.75;1.13;;;19.60;38.70;;;;;;5152122;27;20254;-73
2023/03/28 12:40:40;;;;;;;2.22;1.17;;;19.60;38.70;;;;;;5135878;27;20211;-74
2023/03/28 12:43:08;;;;;;;5.13;1.30;;;19.60;38.70;;;;;;5137417;27;20723;-76
2023/03/28 12:45:41;;;;;;;2.65;0.93;;;19.60;38.50;;;;;;5135447;27;20200;-73
2023/03/28 12:48:16;;;;;;;5.80;1.13;;;19.60;38.60;;;;;;5147154;27;20721;-75
2023/03/28 12:50:49;;;;;;;1.67;1.23;;;19.60;38.70;;;;;;5147659;27;20183;-74
2023/03/28 12:53:17;;;;;;;3.05;1.10;;;19.60;38.80;;;;;;5139054;27;20219;-75
2023/03/28 12:55:50;;;;;;;3.03;1.20;;;19.60;38.70;;;;;;5138860;27;20231;-74
2023/03/28 12:58:23;;;;;;;2.35;1.17;;;19.70;38.80;;;;;;5149818;27;20226;-74
2023/03/28 13:01:02;;;;;;;3.90;1.25;;;19.60;38.70;;;;;;5115712;27;20213;-75
2023/03/28 13:03:44;;;;;;;4.05;1.50;;;19.60;38.80;;;;;;5139190;27;20806;-75
2023/03/28 13:06:20;;;;;;;4.35;1.20;;;19.60;38.80;;;;;;5135931;27;20229;-75
2023/03/28 13:09:04;;;;;;;5.88;1.30;;;19.60;38.90;;;;;;5139205;27;20234;-74
2023/03/28 13:11:39;;;;;;;1.83;1.30;;;19.60;38.90;;;;;;5137314;27;20646;-72